sensor_id;sensor_type;location;lat;lon;timestamp;P1;durP1;ratioP1;P2;durP2;ratioP2
52674;SDS011;38569;52.722;6.440;2023-01-01T00:00:46;40.63;;;28.95;;
52674;SDS011;38569;52.722;6.440;2023-01-01T00:03:12;29.58;;;20.42;;
52674;SDS011;38569;52.722;6.440;2023-01-01T00:05:38;32.28;;;22.58;;
52674;SDS011;38569;52.722;6.440;2023-01-01T00:08:05;27.38;;;17.23;;
52674;SDS011;38569;52.722;6.440;2023-01-01T00:10:31;32.72;;;18.25;;
52674;SDS011;38569;52.722;6.440;2023-01-01T00:12:57;31.55;;;19.27;;
52674;SDS011;38569;52.722;6.440;2023-01-01T00:15:24;35.40;;;18.77;;
52674;SDS011;38569;52.722;6.440;2023-01-01T00:17:51;35.80;;;21.35;;
52674;SDS011;38569;52.722;6.440;2023-01-01T00:20:17;31.80;;;20.42;;
52674;SDS011;38569;52.722;6.440;2023-01-01T00:22:43;48.05;;;34.22;;
52674;SDS011;38569;52.722;6.440;2023-01-01T00:25:09;48.00;;;24.17;;
52674;SDS011;38569;52.722;6.440;2023-01-01T00:27:38;21.15;;;15.65;;
52674;SDS011;38569;52.722;6.440;2023-01-01T00:30:05;30.10;;;16.58;;
52674;SDS011;38569;52.722;6.440;2023-01-01T00:32:32;28.85;;;15.25;;
52674;SDS011;38569;52.722;6.440;2023-01-01T00:34:57;29.35;;;16.80;;
52674;SDS011;38569;52.722;6.440;2023-01-01T00:37:23;30.35;;;16.80;;
52674;SDS011;38569;52.722;6.440;2023-01-01T00:39:49;26.13;;;13.27;;
52674;SDS011;38569;52.722;6.440;2023-01-01T00:42:14;27.40;;;13.25;;
52674;SDS011;38569;52.722;6.440;2023-01-01T00:44:40;26.65;;;13.52;;
52674;SDS011;38569;52.722;6.440;2023-01-01T00:47:06;26.10;;;14.70;;
52674;SDS011;38569;52.722;6.440;2023-01-01T00:49:31;36.75;;;16.25;;
52674;SDS011;38569;52.722;6.440;2023-01-01T00:51:57;23.05;;;15.52;;
52674;SDS011;38569;52.722;6.440;2023-01-01T00:54:23;26.20;;;14.07;;
52674;SDS011;38569;52.722;6.440;2023-01-01T00:56:48;22.65;;;13.60;;
52674;SDS011;38569;52.722;6.440;2023-01-01T00:59:14;26.30;;;15.70;;
52674;SDS011;38569;52.722;6.440;2023-01-01T01:01:40;27.90;;;16.23;;
52674;SDS011;38569;52.722;6.440;2023-01-01T01:04:05;21.85;;;14.70;;
52674;SDS011;38569;52.722;6.440;2023-01-01T01:06:33;25.88;;;15.85;;
52674;SDS011;38569;52.722;6.440;2023-01-01T01:08:59;26.38;;;14.63;;
52674;SDS011;38569;52.722;6.440;2023-01-01T01:11:25;30.08;;;16.33;;
52674;SDS011;38569;52.722;6.440;2023-01-01T01:13:52;28.05;;;16.60;;
52674;SDS011;38569;52.722;6.440;2023-01-01T01:18:45;26.02;;;15.13;;
52674;SDS011;38569;52.722;6.440;2023-01-01T01:21:14;38.28;;;17.13;;
52674;SDS011;38569;52.722;6.440;2023-01-01T01:23:41;28.73;;;16.95;;
52674;SDS011;38569;52.722;6.440;2023-01-01T01:26:11;27.50;;;16.08;;
52674;SDS011;38569;52.722;6.440;2023-01-01T01:28:39;26.90;;;15.90;;
52674;SDS011;38569;52.722;6.440;2023-01-01T01:31:05;28.77;;;16.50;;
52674;SDS011;38569;52.722;6.440;2023-01-01T01:33:31;27.73;;;15.77;;
52674;SDS011;38569;52.722;6.440;2023-01-01T01:35:57;25.38;;;16.08;;
52674;SDS011;38569;52.722;6.440;2023-01-01T01:38:23;21.90;;;14.93;;
52674;SDS011;38569;52.722;6.440;2023-01-01T01:40:49;22.98;;;14.20;;
52674;SDS011;38569;52.722;6.440;2023-01-01T01:43:43;22.67;;;13.43;;
52674;SDS011;38569;52.722;6.440;2023-01-01T01:46:16;26.88;;;16.40;;
52674;SDS011;38569;52.722;6.440;2023-01-01T01:49:38;27.80;;;15.27;;
52674;SDS011;38569;52.722;6.440;2023-01-01T01:51:57;24.52;;;15.45;;
52674;SDS011;38569;52.722;6.440;2023-01-01T01:54:26;28.30;;;16.83;;
52674;SDS011;38569;52.722;6.440;2023-01-01T01:56:59;27.83;;;16.00;;
52674;SDS011;38569;52.722;6.440;2023-01-01T01:59:29;25.77;;;15.63;;
52674;SDS011;38569;52.722;6.440;2023-01-01T02:01:57;26.98;;;15.73;;
52674;SDS011;38569;52.722;6.440;2023-01-01T02:04:24;23.83;;;15.07;;
52674;SDS011;38569;52.722;6.440;2023-01-01T02:06:50;25.67;;;14.68;;
52674;SDS011;38569;52.722;6.440;2023-01-01T02:09:17;23.48;;;14.77;;
52674;SDS011;38569;52.722;6.440;2023-01-01T02:11:42;25.65;;;13.95;;
52674;SDS011;38569;52.722;6.440;2023-01-01T02:14:08;28.98;;;15.70;;
52674;SDS011;38569;52.722;6.440;2023-01-01T02:22:05;35.60;;;14.07;;
52674;SDS011;38569;52.722;6.440;2023-01-01T02:31:07;30.73;;;12.52;;
52674;SDS011;38569;52.722;6.440;2023-01-01T02:33:36;17.27;;;11.07;;
52674;SDS011;38569;52.722;6.440;2023-01-01T02:36:02;18.80;;;9.80;;
52674;SDS011;38569;52.722;6.440;2023-01-01T02:38:30;21.92;;;10.65;;
52674;SDS011;38569;52.722;6.440;2023-01-01T02:41:13;19.52;;;9.77;;
52674;SDS011;38569;52.722;6.440;2023-01-01T02:43:44;23.73;;;10.52;;
52674;SDS011;38569;52.722;6.440;2023-01-01T02:46:10;23.02;;;10.32;;
52674;SDS011;38569;52.722;6.440;2023-01-01T02:48:38;15.13;;;8.15;;
52674;SDS011;38569;52.722;6.440;2023-01-01T02:51:15;20.50;;;8.23;;
52674;SDS011;38569;52.722;6.440;2023-01-01T02:53:47;20.90;;;7.35;;
52674;SDS011;38569;52.722;6.440;2023-01-01T02:56:41;15.88;;;7.68;;
52674;SDS011;38569;52.722;6.440;2023-01-01T03:02:34;15.57;;;6.53;;
52674;SDS011;38569;52.722;6.440;2023-01-01T03:08:29;14.45;;;5.30;;
52674;SDS011;38569;52.722;6.440;2023-01-01T03:11:22;15.65;;;4.90;;
52674;SDS011;38569;52.722;6.440;2023-01-01T03:16:28;15.50;;;6.07;;
52674;SDS011;38569;52.722;6.440;2023-01-01T03:19:05;10.25;;;4.38;;
52674;SDS011;38569;52.722;6.440;2023-01-01T03:21:56;14.32;;;4.95;;
52674;SDS011;38569;52.722;6.440;2023-01-01T03:27:03;13.18;;;4.47;;
52674;SDS011;38569;52.722;6.440;2023-01-01T03:29:42;12.57;;;4.32;;
52674;SDS011;38569;52.722;6.440;2023-01-01T03:32:12;8.95;;;4.10;;
52674;SDS011;38569;52.722;6.440;2023-01-01T03:34:49;10.60;;;3.80;;
52674;SDS011;38569;52.722;6.440;2023-01-01T03:37:20;14.93;;;4.80;;
52674;SDS011;38569;52.722;6.440;2023-01-01T03:39:50;8.82;;;3.50;;
52674;SDS011;38569;52.722;6.440;2023-01-01T03:42:54;10.65;;;3.67;;
52674;SDS011;38569;52.722;6.440;2023-01-01T03:45:16;11.05;;;3.92;;
52674;SDS011;38569;52.722;6.440;2023-01-01T03:47:48;12.07;;;3.90;;
52674;SDS011;38569;52.722;6.440;2023-01-01T03:50:14;7.40;;;3.15;;
52674;SDS011;38569;52.722;6.440;2023-01-01T03:52:54;16.40;;;3.88;;
52674;SDS011;38569;52.722;6.440;2023-01-01T03:55:31;13.30;;;4.47;;
52674;SDS011;38569;52.722;6.440;2023-01-01T03:58:15;8.77;;;3.25;;
52674;SDS011;38569;52.722;6.440;2023-01-01T04:00:50;14.25;;;4.18;;
52674;SDS011;38569;52.722;6.440;2023-01-01T04:03:24;11.88;;;4.07;;
52674;SDS011;38569;52.722;6.440;2023-01-01T04:05:52;8.85;;;3.30;;
52674;SDS011;38569;52.722;6.440;2023-01-01T04:08:18;10.65;;;3.10;;
52674;SDS011;38569;52.722;6.440;2023-01-01T04:10:45;8.40;;;3.40;;
52674;SDS011;38569;52.722;6.440;2023-01-01T04:13:22;8.68;;;3.25;;
52674;SDS011;38569;52.722;6.440;2023-01-01T04:15:49;8.05;;;3.30;;
52674;SDS011;38569;52.722;6.440;2023-01-01T04:18:15;15.43;;;3.35;;
52674;SDS011;38569;52.722;6.440;2023-01-01T04:20:40;9.40;;;3.30;;
52674;SDS011;38569;52.722;6.440;2023-01-01T04:23:06;11.68;;;3.72;;
52674;SDS011;38569;52.722;6.440;2023-01-01T04:25:33;11.07;;;3.53;;
52674;SDS011;38569;52.722;6.440;2023-01-01T04:27:59;12.35;;;3.22;;
52674;SDS011;38569;52.722;6.440;2023-01-01T04:30:28;9.25;;;2.70;;
52674;SDS011;38569;52.722;6.440;2023-01-01T04:32:54;11.15;;;3.08;;
52674;SDS011;38569;52.722;6.440;2023-01-01T04:35:20;7.28;;;2.67;;
52674;SDS011;38569;52.722;6.440;2023-01-01T04:37:45;8.27;;;2.60;;
52674;SDS011;38569;52.722;6.440;2023-01-01T04:40:11;12.73;;;4.07;;
52674;SDS011;38569;52.722;6.440;2023-01-01T04:42:38;10.05;;;3.00;;
52674;SDS011;38569;52.722;6.440;2023-01-01T04:45:04;8.68;;;2.55;;
52674;SDS011;38569;52.722;6.440;2023-01-01T04:47:30;8.50;;;2.50;;
52674;SDS011;38569;52.722;6.440;2023-01-01T04:49:56;11.95;;;2.90;;
52674;SDS011;38569;52.722;6.440;2023-01-01T04:52:21;5.40;;;2.10;;
52674;SDS011;38569;52.722;6.440;2023-01-01T04:54:47;8.32;;;2.13;;
52674;SDS011;38569;52.722;6.440;2023-01-01T04:57:13;7.95;;;2.53;;
52674;SDS011;38569;52.722;6.440;2023-01-01T04:59:38;15.43;;;3.80;;
52674;SDS011;38569;52.722;6.440;2023-01-01T05:02:05;8.60;;;2.38;;
52674;SDS011;38569;52.722;6.440;2023-01-01T05:04:30;7.10;;;2.17;;
52674;SDS011;38569;52.722;6.440;2023-01-01T05:06:56;11.18;;;3.17;;
52674;SDS011;38569;52.722;6.440;2023-01-01T05:09:22;6.70;;;2.15;;
52674;SDS011;38569;52.722;6.440;2023-01-01T05:11:47;5.43;;;1.60;;
52674;SDS011;38569;52.722;6.440;2023-01-01T05:14:13;9.30;;;3.08;;
52674;SDS011;38569;52.722;6.440;2023-01-01T05:16:39;7.80;;;2.03;;
52674;SDS011;38569;52.722;6.440;2023-01-01T05:19:05;8.35;;;2.20;;
52674;SDS011;38569;52.722;6.440;2023-01-01T05:21:36;7.07;;;2.38;;
52674;SDS011;38569;52.722;6.440;2023-01-01T05:24:09;6.30;;;1.88;;
52674;SDS011;38569;52.722;6.440;2023-01-01T05:26:37;5.82;;;1.90;;
52674;SDS011;38569;52.722;6.440;2023-01-01T05:29:04;5.75;;;1.85;;
52674;SDS011;38569;52.722;6.440;2023-01-01T05:31:32;5.00;;;1.70;;
52674;SDS011;38569;52.722;6.440;2023-01-01T05:33:59;7.03;;;1.80;;
52674;SDS011;38569;52.722;6.440;2023-01-01T05:36:28;6.82;;;1.40;;
52674;SDS011;38569;52.722;6.440;2023-01-01T05:38:56;5.28;;;1.85;;
52674;SDS011;38569;52.722;6.440;2023-01-01T05:41:22;6.38;;;2.78;;
52674;SDS011;38569;52.722;6.440;2023-01-01T05:43:48;4.93;;;1.85;;
52674;SDS011;38569;52.722;6.440;2023-01-01T05:46:16;9.48;;;1.42;;
52674;SDS011;38569;52.722;6.440;2023-01-01T05:48:43;5.75;;;1.60;;
52674;SDS011;38569;52.722;6.440;2023-01-01T05:51:15;6.03;;;1.80;;
52674;SDS011;38569;52.722;6.440;2023-01-01T05:53:43;4.67;;;1.33;;
52674;SDS011;38569;52.722;6.440;2023-01-01T05:56:09;9.10;;;1.45;;
52674;SDS011;38569;52.722;6.440;2023-01-01T05:58:35;4.13;;;1.70;;
52674;SDS011;38569;52.722;6.440;2023-01-01T06:01:11;7.18;;;1.65;;
52674;SDS011;38569;52.722;6.440;2023-01-01T06:03:45;6.03;;;1.77;;
52674;SDS011;38569;52.722;6.440;2023-01-01T06:06:15;6.90;;;2.13;;
52674;SDS011;38569;52.722;6.440;2023-01-01T06:08:50;2.80;;;1.48;;
52674;SDS011;38569;52.722;6.440;2023-01-01T06:11:17;9.32;;;2.38;;
52674;SDS011;38569;52.722;6.440;2023-01-01T06:13:44;4.72;;;1.85;;
52674;SDS011;38569;52.722;6.440;2023-01-01T06:16:10;4.30;;;1.60;;
52674;SDS011;38569;52.722;6.440;2023-01-01T06:18:36;10.20;;;2.45;;
52674;SDS011;38569;52.722;6.440;2023-01-01T06:21:07;7.82;;;1.95;;
52674;SDS011;38569;52.722;6.440;2023-01-01T06:23:34;5.10;;;2.15;;
52674;SDS011;38569;52.722;6.440;2023-01-01T06:26:04;9.05;;;2.55;;
52674;SDS011;38569;52.722;6.440;2023-01-01T06:28:34;6.53;;;1.85;;
52674;SDS011;38569;52.722;6.440;2023-01-01T06:31:01;9.80;;;2.70;;
52674;SDS011;38569;52.722;6.440;2023-01-01T06:33:31;4.80;;;2.47;;
52674;SDS011;38569;52.722;6.440;2023-01-01T06:35:57;6.70;;;1.50;;
52674;SDS011;38569;52.722;6.440;2023-01-01T06:38:23;8.82;;;2.45;;
52674;SDS011;38569;52.722;6.440;2023-01-01T06:40:56;10.70;;;1.80;;
52674;SDS011;38569;52.722;6.440;2023-01-01T06:43:23;9.45;;;2.28;;
52674;SDS011;38569;52.722;6.440;2023-01-01T06:45:58;7.22;;;2.00;;
52674;SDS011;38569;52.722;6.440;2023-01-01T06:48:28;10.18;;;2.97;;
52674;SDS011;38569;52.722;6.440;2023-01-01T06:50:57;9.48;;;2.05;;
52674;SDS011;38569;52.722;6.440;2023-01-01T06:53:28;7.32;;;1.90;;
52674;SDS011;38569;52.722;6.440;2023-01-01T06:55:54;6.63;;;2.22;;
52674;SDS011;38569;52.722;6.440;2023-01-01T06:58:20;11.98;;;2.72;;
52674;SDS011;38569;52.722;6.440;2023-01-01T07:00:45;7.82;;;2.10;;
52674;SDS011;38569;52.722;6.440;2023-01-01T07:03:11;7.22;;;2.63;;
52674;SDS011;38569;52.722;6.440;2023-01-01T07:05:37;10.32;;;2.28;;
52674;SDS011;38569;52.722;6.440;2023-01-01T07:08:02;8.32;;;2.10;;
52674;SDS011;38569;52.722;6.440;2023-01-01T07:10:28;8.43;;;2.72;;
52674;SDS011;38569;52.722;6.440;2023-01-01T07:12:54;8.77;;;2.15;;
52674;SDS011;38569;52.722;6.440;2023-01-01T07:15:20;8.32;;;2.08;;
52674;SDS011;38569;52.722;6.440;2023-01-01T07:17:46;7.65;;;2.13;;
52674;SDS011;38569;52.722;6.440;2023-01-01T07:20:11;9.00;;;2.50;;
52674;SDS011;38569;52.722;6.440;2023-01-01T07:22:37;10.25;;;1.92;;
52674;SDS011;38569;52.722;6.440;2023-01-01T07:25:05;11.23;;;2.00;;
52674;SDS011;38569;52.722;6.440;2023-01-01T07:27:31;11.85;;;3.22;;
52674;SDS011;38569;52.722;6.440;2023-01-01T07:29:57;11.55;;;2.25;;
52674;SDS011;38569;52.722;6.440;2023-01-01T07:32:23;7.95;;;2.40;;
52674;SDS011;38569;52.722;6.440;2023-01-01T07:34:49;6.15;;;1.67;;
52674;SDS011;38569;52.722;6.440;2023-01-01T07:37:14;5.30;;;2.50;;
52674;SDS011;38569;52.722;6.440;2023-01-01T07:39:40;9.43;;;2.67;;
52674;SDS011;38569;52.722;6.440;2023-01-01T07:42:06;7.53;;;2.00;;
52674;SDS011;38569;52.722;6.440;2023-01-01T07:44:31;10.30;;;1.90;;
52674;SDS011;38569;52.722;6.440;2023-01-01T07:47:04;7.93;;;1.75;;
52674;SDS011;38569;52.722;6.440;2023-01-01T07:49:38;7.93;;;2.10;;
52674;SDS011;38569;52.722;6.440;2023-01-01T07:52:03;9.30;;;2.28;;
52674;SDS011;38569;52.722;6.440;2023-01-01T07:54:29;7.93;;;2.88;;
52674;SDS011;38569;52.722;6.440;2023-01-01T07:56:55;14.57;;;2.28;;
52674;SDS011;38569;52.722;6.440;2023-01-01T07:59:20;15.32;;;3.45;;
52674;SDS011;38569;52.722;6.440;2023-01-01T08:01:46;5.72;;;2.22;;
52674;SDS011;38569;52.722;6.440;2023-01-01T08:04:12;8.65;;;1.73;;
52674;SDS011;38569;52.722;6.440;2023-01-01T08:06:37;15.45;;;3.05;;
52674;SDS011;38569;52.722;6.440;2023-01-01T08:09:03;11.75;;;3.10;;
52674;SDS011;38569;52.722;6.440;2023-01-01T08:11:29;8.30;;;1.88;;
52674;SDS011;38569;52.722;6.440;2023-01-01T08:13:55;17.02;;;3.28;;
52674;SDS011;38569;52.722;6.440;2023-01-01T08:16:20;14.05;;;2.65;;
52674;SDS011;38569;52.722;6.440;2023-01-01T08:18:46;9.55;;;1.75;;
52674;SDS011;38569;52.722;6.440;2023-01-01T08:21:12;10.25;;;2.30;;
52674;SDS011;38569;52.722;6.440;2023-01-01T08:23:37;9.25;;;2.25;;
52674;SDS011;38569;52.722;6.440;2023-01-01T08:26:03;10.52;;;2.53;;
52674;SDS011;38569;52.722;6.440;2023-01-01T08:28:29;14.77;;;3.50;;
52674;SDS011;38569;52.722;6.440;2023-01-01T08:30:55;10.52;;;1.92;;
52674;SDS011;38569;52.722;6.440;2023-01-01T08:33:21;10.35;;;2.28;;
52674;SDS011;38569;52.722;6.440;2023-01-01T08:35:49;11.85;;;2.58;;
52674;SDS011;38569;52.722;6.440;2023-01-01T08:38:14;12.15;;;2.78;;
52674;SDS011;38569;52.722;6.440;2023-01-01T08:40:40;10.75;;;2.25;;
52674;SDS011;38569;52.722;6.440;2023-01-01T08:43:06;12.77;;;2.85;;
52674;SDS011;38569;52.722;6.440;2023-01-01T08:45:32;15.10;;;3.88;;
52674;SDS011;38569;52.722;6.440;2023-01-01T08:47:57;12.77;;;2.85;;
52674;SDS011;38569;52.722;6.440;2023-01-01T08:50:23;11.18;;;2.25;;
52674;SDS011;38569;52.722;6.440;2023-01-01T08:52:50;10.43;;;2.25;;
52674;SDS011;38569;52.722;6.440;2023-01-01T08:55:15;9.73;;;2.63;;
52674;SDS011;38569;52.722;6.440;2023-01-01T08:57:41;10.05;;;2.47;;
52674;SDS011;38569;52.722;6.440;2023-01-01T09:00:07;8.07;;;2.40;;
52674;SDS011;38569;52.722;6.440;2023-01-01T09:02:33;14.98;;;2.90;;
52674;SDS011;38569;52.722;6.440;2023-01-01T09:04:59;10.38;;;2.53;;
52674;SDS011;38569;52.722;6.440;2023-01-01T09:07:25;12.55;;;2.42;;
52674;SDS011;38569;52.722;6.440;2023-01-01T09:09:50;11.07;;;2.28;;
52674;SDS011;38569;52.722;6.440;2023-01-01T09:12:16;15.20;;;2.70;;
52674;SDS011;38569;52.722;6.440;2023-01-01T09:14:42;11.40;;;2.80;;
52674;SDS011;38569;52.722;6.440;2023-01-01T09:17:10;12.40;;;2.80;;
52674;SDS011;38569;52.722;6.440;2023-01-01T09:19:36;8.80;;;2.92;;
52674;SDS011;38569;52.722;6.440;2023-01-01T09:22:02;10.85;;;2.42;;
52674;SDS011;38569;52.722;6.440;2023-01-01T09:24:28;11.20;;;3.28;;
52674;SDS011;38569;52.722;6.440;2023-01-01T09:26:53;13.25;;;2.60;;
52674;SDS011;38569;52.722;6.440;2023-01-01T09:29:19;13.80;;;3.63;;
52674;SDS011;38569;52.722;6.440;2023-01-01T09:31:46;13.98;;;2.97;;
52674;SDS011;38569;52.722;6.440;2023-01-01T09:34:12;13.75;;;2.90;;
52674;SDS011;38569;52.722;6.440;2023-01-01T09:36:38;11.95;;;2.75;;
52674;SDS011;38569;52.722;6.440;2023-01-01T09:39:04;13.02;;;2.45;;
52674;SDS011;38569;52.722;6.440;2023-01-01T09:41:49;13.00;;;4.45;;
52674;SDS011;38569;52.722;6.440;2023-01-01T09:47:00;10.27;;;2.80;;
52674;SDS011;38569;52.722;6.440;2023-01-01T09:49:29;12.10;;;3.42;;
52674;SDS011;38569;52.722;6.440;2023-01-01T09:51:59;11.73;;;4.50;;
52674;SDS011;38569;52.722;6.440;2023-01-01T09:54:33;8.00;;;2.15;;
52674;SDS011;38569;52.722;6.440;2023-01-01T09:57:04;22.23;;;3.15;;
52674;SDS011;38569;52.722;6.440;2023-01-01T09:59:34;12.05;;;2.33;;
52674;SDS011;38569;52.722;6.440;2023-01-01T10:05:20;13.48;;;2.85;;
52674;SDS011;38569;52.722;6.440;2023-01-01T10:08:09;9.82;;;2.00;;
52674;SDS011;38569;52.722;6.440;2023-01-01T10:10:48;14.30;;;2.75;;
52674;SDS011;38569;52.722;6.440;2023-01-01T10:13:31;11.77;;;2.20;;
52674;SDS011;38569;52.722;6.440;2023-01-01T10:18:38;15.45;;;2.70;;
52674;SDS011;38569;52.722;6.440;2023-01-01T10:21:08;9.25;;;2.80;;
52674;SDS011;38569;52.722;6.440;2023-01-01T10:26:08;11.23;;;2.45;;
52674;SDS011;38569;52.722;6.440;2023-01-01T10:29:00;16.08;;;4.13;;
52674;SDS011;38569;52.722;6.440;2023-01-01T10:33:58;9.77;;;2.45;;
52674;SDS011;38569;52.722;6.440;2023-01-01T10:36:36;11.18;;;2.25;;
52674;SDS011;38569;52.722;6.440;2023-01-01T10:39:02;12.23;;;2.97;;
52674;SDS011;38569;52.722;6.440;2023-01-01T10:41:27;10.25;;;2.45;;
52674;SDS011;38569;52.722;6.440;2023-01-01T10:43:53;13.85;;;2.38;;
52674;SDS011;38569;52.722;6.440;2023-01-01T10:46:20;15.82;;;3.38;;
52674;SDS011;38569;52.722;6.440;2023-01-01T10:51:37;14.23;;;2.95;;
52674;SDS011;38569;52.722;6.440;2023-01-01T10:54:24;12.70;;;3.58;;
52674;SDS011;38569;52.722;6.440;2023-01-01T10:57:45;14.88;;;3.42;;
52674;SDS011;38569;52.722;6.440;2023-01-01T10:59:54;10.25;;;2.65;;
52674;SDS011;38569;52.722;6.440;2023-01-01T11:02:43;12.80;;;2.78;;
52674;SDS011;38569;52.722;6.440;2023-01-01T11:05:19;12.23;;;2.85;;
52674;SDS011;38569;52.722;6.440;2023-01-01T11:07:45;16.08;;;3.78;;
52674;SDS011;38569;52.722;6.440;2023-01-01T11:10:16;11.20;;;4.20;;
52674;SDS011;38569;52.722;6.440;2023-01-01T11:12:46;13.68;;;2.60;;
52674;SDS011;38569;52.722;6.440;2023-01-01T11:15:20;12.30;;;2.45;;
52674;SDS011;38569;52.722;6.440;2023-01-01T11:17:46;8.27;;;2.87;;
52674;SDS011;38569;52.722;6.440;2023-01-01T11:20:16;16.70;;;3.45;;
52674;SDS011;38569;52.722;6.440;2023-01-01T11:22:44;9.55;;;2.80;;
52674;SDS011;38569;52.722;6.440;2023-01-01T11:25:21;12.57;;;2.58;;
52674;SDS011;38569;52.722;6.440;2023-01-01T11:27:52;13.30;;;3.13;;
52674;SDS011;38569;52.722;6.440;2023-01-01T11:31:06;15.13;;;3.67;;
52674;SDS011;38569;52.722;6.440;2023-01-01T11:33:31;10.57;;;3.92;;
52674;SDS011;38569;52.722;6.440;2023-01-01T11:35:59;12.82;;;2.92;;
52674;SDS011;38569;52.722;6.440;2023-01-01T11:38:25;13.48;;;3.88;;
52674;SDS011;38569;52.722;6.440;2023-01-01T11:40:52;12.88;;;3.50;;
52674;SDS011;38569;52.722;6.440;2023-01-01T11:43:23;13.18;;;3.40;;
52674;SDS011;38569;52.722;6.440;2023-01-01T11:45:53;14.77;;;3.20;;
52674;SDS011;38569;52.722;6.440;2023-01-01T11:48:31;13.07;;;2.75;;
52674;SDS011;38569;52.722;6.440;2023-01-01T11:50:59;14.80;;;3.05;;
52674;SDS011;38569;52.722;6.440;2023-01-01T11:53:29;10.85;;;2.20;;
52674;SDS011;38569;52.722;6.440;2023-01-01T12:01:00;11.43;;;3.53;;
52674;SDS011;38569;52.722;6.440;2023-01-01T12:06:03;10.98;;;2.53;;
52674;SDS011;38569;52.722;6.440;2023-01-01T12:09:26;13.87;;;2.73;;
52674;SDS011;38569;52.722;6.440;2023-01-01T12:11:30;18.15;;;4.18;;
52674;SDS011;38569;52.722;6.440;2023-01-01T12:14:06;11.00;;;2.65;;
52674;SDS011;38569;52.722;6.440;2023-01-01T12:16:47;15.55;;;2.97;;
52674;SDS011;38569;52.722;6.440;2023-01-01T12:19:39;13.63;;;2.38;;
52674;SDS011;38569;52.722;6.440;2023-01-01T12:22:19;14.68;;;3.63;;
52674;SDS011;38569;52.722;6.440;2023-01-01T12:24:45;14.40;;;2.60;;
52674;SDS011;38569;52.722;6.440;2023-01-01T12:27:14;12.15;;;2.65;;
52674;SDS011;38569;52.722;6.440;2023-01-01T12:35:30;13.68;;;2.83;;
52674;SDS011;38569;52.722;6.440;2023-01-01T12:43:42;14.32;;;3.83;;
52674;SDS011;38569;52.722;6.440;2023-01-01T12:51:33;9.98;;;2.83;;
52674;SDS011;38569;52.722;6.440;2023-01-01T12:56:44;13.88;;;3.58;;
52674;SDS011;38569;52.722;6.440;2023-01-01T12:59:21;13.27;;;3.10;;
52674;SDS011;38569;52.722;6.440;2023-01-01T13:01:52;15.15;;;4.88;;
52674;SDS011;38569;52.722;6.440;2023-01-01T13:04:21;13.85;;;3.55;;
52674;SDS011;38569;52.722;6.440;2023-01-01T13:09:24;11.20;;;3.10;;
52674;SDS011;38569;52.722;6.440;2023-01-01T13:11:53;12.50;;;2.80;;
52674;SDS011;38569;52.722;6.440;2023-01-01T13:14:22;14.50;;;2.83;;
52674;SDS011;38569;52.722;6.440;2023-01-01T13:16:51;13.65;;;3.03;;
52674;SDS011;38569;52.722;6.440;2023-01-01T13:21:57;21.92;;;3.88;;
52674;SDS011;38569;52.722;6.440;2023-01-01T13:24:25;18.00;;;3.78;;
52674;SDS011;38569;52.722;6.440;2023-01-01T13:26:52;12.63;;;3.20;;
52674;SDS011;38569;52.722;6.440;2023-01-01T13:45:15;15.15;;;2.80;;
52674;SDS011;38569;52.722;6.440;2023-01-01T13:48:16;15.43;;;3.92;;
52674;SDS011;38569;52.722;6.440;2023-01-01T13:54:09;15.43;;;2.97;;
52674;SDS011;38569;52.722;6.440;2023-01-01T14:04:47;15.73;;;3.30;;
52674;SDS011;38569;52.722;6.440;2023-01-01T14:10:12;13.00;;;3.13;;
52674;SDS011;38569;52.722;6.440;2023-01-01T14:18:11;16.88;;;3.85;;
52674;SDS011;38569;52.722;6.440;2023-01-01T14:20:40;16.95;;;4.72;;
52674;SDS011;38569;52.722;6.440;2023-01-01T14:23:18;14.93;;;3.92;;
52674;SDS011;38569;52.722;6.440;2023-01-01T14:25:45;16.90;;;4.43;;
52674;SDS011;38569;52.722;6.440;2023-01-01T14:28:24;14.60;;;4.32;;
52674;SDS011;38569;52.722;6.440;2023-01-01T14:30:52;58.63;;;51.90;;
52674;SDS011;38569;52.722;6.440;2023-01-01T14:33:21;68.15;;;61.03;;
52674;SDS011;38569;52.722;6.440;2023-01-01T14:35:55;16.92;;;7.28;;
52674;SDS011;38569;52.722;6.440;2023-01-01T14:38:23;109.80;;;73.85;;
52674;SDS011;38569;52.722;6.440;2023-01-01T14:40:58;20.80;;;12.90;;
52674;SDS011;38569;52.722;6.440;2023-01-01T14:43:38;18.30;;;8.27;;
52674;SDS011;38569;52.722;6.440;2023-01-01T14:46:05;17.67;;;4.93;;
52674;SDS011;38569;52.722;6.440;2023-01-01T14:48:32;13.77;;;3.67;;
52674;SDS011;38569;52.722;6.440;2023-01-01T14:51:00;14.90;;;4.50;;
52674;SDS011;38569;52.722;6.440;2023-01-01T14:53:30;23.42;;;6.38;;
52674;SDS011;38569;52.722;6.440;2023-01-01T14:55:57;15.25;;;4.22;;
52674;SDS011;38569;52.722;6.440;2023-01-01T14:58:25;17.35;;;5.10;;
52674;SDS011;38569;52.722;6.440;2023-01-01T15:00:53;14.60;;;4.13;;
52674;SDS011;38569;52.722;6.440;2023-01-01T15:03:37;16.50;;;5.40;;
52674;SDS011;38569;52.722;6.440;2023-01-01T15:06:02;15.02;;;4.75;;
52674;SDS011;38569;52.722;6.440;2023-01-01T15:08:30;24.00;;;5.90;;
52674;SDS011;38569;52.722;6.440;2023-01-01T15:10:56;19.52;;;4.25;;
52674;SDS011;38569;52.722;6.440;2023-01-01T15:13:26;13.40;;;4.25;;
52674;SDS011;38569;52.722;6.440;2023-01-01T15:15:56;19.77;;;3.78;;
52674;SDS011;38569;52.722;6.440;2023-01-01T15:18:42;16.02;;;5.80;;
52674;SDS011;38569;52.722;6.440;2023-01-01T15:23:53;18.00;;;4.30;;
52674;SDS011;38569;52.722;6.440;2023-01-01T15:28:55;14.63;;;3.67;;
52674;SDS011;38569;52.722;6.440;2023-01-01T15:31:22;21.75;;;4.68;;
52674;SDS011;38569;52.722;6.440;2023-01-01T15:34:19;15.40;;;4.03;;
52674;SDS011;38569;52.722;6.440;2023-01-01T15:36:51;18.45;;;4.55;;
52674;SDS011;38569;52.722;6.440;2023-01-01T15:39:18;14.88;;;4.55;;
52674;SDS011;38569;52.722;6.440;2023-01-01T15:41:46;15.23;;;4.88;;
52674;SDS011;38569;52.722;6.440;2023-01-01T15:46:50;17.95;;;4.20;;
52674;SDS011;38569;52.722;6.440;2023-01-01T15:49:27;16.85;;;4.35;;
52674;SDS011;38569;52.722;6.440;2023-01-01T15:51:57;19.50;;;4.15;;
52674;SDS011;38569;52.722;6.440;2023-01-01T15:54:26;16.95;;;6.28;;
52674;SDS011;38569;52.722;6.440;2023-01-01T15:56:53;21.08;;;7.07;;
52674;SDS011;38569;52.722;6.440;2023-01-01T15:59:29;24.55;;;5.35;;
52674;SDS011;38569;52.722;6.440;2023-01-01T16:02:19;22.38;;;7.00;;
52674;SDS011;38569;52.722;6.440;2023-01-01T16:04:57;17.25;;;3.92;;
52674;SDS011;38569;52.722;6.440;2023-01-01T16:07:24;15.27;;;3.97;;
52674;SDS011;38569;52.722;6.440;2023-01-01T16:09:52;20.55;;;5.35;;
52674;SDS011;38569;52.722;6.440;2023-01-01T16:12:19;20.02;;;6.07;;
52674;SDS011;38569;52.722;6.440;2023-01-01T16:14:45;17.85;;;6.88;;
52674;SDS011;38569;52.722;6.440;2023-01-01T16:17:11;24.63;;;9.70;;
52674;SDS011;38569;52.722;6.440;2023-01-01T16:19:42;25.77;;;10.63;;
52674;SDS011;38569;52.722;6.440;2023-01-01T16:22:15;25.88;;;8.48;;
52674;SDS011;38569;52.722;6.440;2023-01-01T16:24:42;23.38;;;7.72;;
52674;SDS011;38569;52.722;6.440;2023-01-01T16:27:10;22.17;;;7.60;;
52674;SDS011;38569;52.722;6.440;2023-01-01T16:29:36;18.45;;;6.93;;
52674;SDS011;38569;52.722;6.440;2023-01-01T16:32:02;18.27;;;7.70;;
52674;SDS011;38569;52.722;6.440;2023-01-01T16:34:28;17.48;;;6.72;;
52674;SDS011;38569;52.722;6.440;2023-01-01T16:36:54;24.73;;;10.00;;
52674;SDS011;38569;52.722;6.440;2023-01-01T16:39:19;21.42;;;7.05;;
52674;SDS011;38569;52.722;6.440;2023-01-01T16:41:45;15.80;;;5.30;;
52674;SDS011;38569;52.722;6.440;2023-01-01T16:44:11;20.25;;;5.40;;
52674;SDS011;38569;52.722;6.440;2023-01-01T16:46:40;21.80;;;8.85;;
52674;SDS011;38569;52.722;6.440;2023-01-01T16:49:06;20.55;;;9.05;;